Time;durP1;ratioP1;P1;durP2;ratioP2;P2;SDS_P1;SDS_P2;PMS_P1;PMS_P2;Temp;Humidity;BMP_temperature;BMP_pressure;BME280_temperature;BME280_humidity;BME280_pressure;Samples;Min_cycle;Max_cycle;Signal;HPM_P1;HPM_P2
2021/01/16 10:44:21;;;;;;;9.33;6.10;;;;;;;;;;4939327;28;167581;-71
2021/01/16 10:46:51;;;;;;;12.37;6.37;;;;;;;;;;4932572;28;166740;-74
2021/01/16 10:49:22;;;;;;;8.93;6.47;;;;;;;;;;4932816;28;166845;-80
2021/01/16 10:51:49;;;;;;;9.03;5.70;;;;;;;;;;4926850;28;167644;-74
2021/01/16 10:54:16;;;;;;;8.80;6.30;;;;;;;;;;4912857;28;167617;-73
2021/01/16 10:56:44;;;;;;;7.10;5.60;;;;;;;;;;4916950;28;167037;-74
2021/01/16 10:59:13;;;;;;;7.27;5.83;;;;;;;;;;4933043;28;167328;-76
2021/01/16 11:01:47;;;;;;;11.40;5.60;;;;;;;;;;4929269;28;167814;-75
2021/01/16 11:04:19;;;;;;;10.63;6.20;;;;;;;;;;4914210;28;168691;-75
2021/01/16 11:06:50;;;;;;;11.43;5.70;;;;;;;;;;4913008;28;167832;-74
2021/01/16 11:09:34;;;;;;;9.60;5.70;;;;;;;;;;4922158;28;167401;-74
2021/01/16 11:12:02;;;;;;;7.40;5.67;;;;;;;;;;4925445;28;170201;-74
2021/01/16 11:14:32;;;;;;;10.83;5.60;;;;;;;;;;4932210;28;168652;-75
2021/01/16 11:17:01;;;;;;;7.70;5.63;;;;;;;;;;4925464;28;167475;-75
2021/01/16 11:19:31;;;;;;;7.77;5.77;;;;;;;;;;4913043;28;167353;-77
2021/01/16 11:22:05;;;;;;;9.80;6.33;;;;;;;;;;4915482;28;170006;-73
2021/01/16 11:24:52;;;;;;;10.10;5.50;;;;;;;;;;4935713;28;168430;-71
2021/01/16 11:27:20;;;;;;;12.70;5.70;;;;;;;;;;4923948;28;167640;-72
2021/01/16 11:29:48;;;;;;;7.93;5.80;;;;;;;;;;4932212;28;167267;-72
2021/01/16 11:32:19;;;;;;;7.30;5.20;;;;;;;;;;4918723;28;168042;-72
2021/01/16 11:35:03;;;;;;;8.60;5.40;;;;;;;;;;4915997;28;167551;-72
2021/01/16 11:37:43;;;;;;;7.70;5.17;;;;;;;;;;4926413;28;167897;-72
2021/01/16 11:40:24;;;;;;;9.50;5.30;;;;;;;;;;4923654;28;167654;-72
2021/01/16 11:43:05;;;;;;;7.90;5.33;;;;;;;;;;4914885;28;169250;-70
2021/01/16 11:45:32;;;;;;;6.27;5.03;;;;;;;;;;4920053;28;167655;-73
2021/01/16 11:48:00;;;;;;;8.63;4.80;;;;;;;;;;4928035;28;167032;-71
2021/01/16 11:50:31;;;;;;;7.07;5.20;;;;;;;;;;4913495;28;167681;-73
2021/01/16 11:53:05;;;;;;;10.47;4.93;;;;;;;;;;4912213;28;168000;-71
2021/01/16 11:55:32;;;;;;;6.50;4.73;;;;;;;;;;4898763;28;168238;-74
2021/01/16 11:58:00;;;;;;;7.27;5.10;;;;;;;;;;4899361;28;167347;-73
2021/01/16 12:00:27;;;;;;;8.27;5.40;;;;;;;;;;4899060;28;167473;-72
2021/01/16 12:03:04;;;;;;;6.70;5.10;;;;;;;;;;4904519;28;167292;-71
2021/01/16 12:05:31;;;;;;;6.63;5.33;;;;;;;;;;4932252;28;168533;-72
2021/01/16 12:07:58;;;;;;;8.30;4.73;;;;;;;;;;4918646;28;167122;-71
2021/01/16 12:10:25;;;;;;;5.10;4.30;;;;;;;;;;4916961;28;167944;-71
2021/01/16 12:12:53;;;;;;;5.80;4.17;;;;;;;;;;4915034;28;168383;-72
2021/01/16 12:15:32;;;;;;;6.20;4.40;;;;;;;;;;4898600;28;168499;-73
2021/01/16 12:17:59;;;;;;;6.37;4.60;;;;;;;;;;4900931;28;168298;-72
2021/01/16 12:20:26;;;;;;;6.43;4.73;;;;;;;;;;4907520;28;168198;-70
2021/01/16 12:23:01;;;;;;;6.73;4.57;;;;;;;;;;4901574;28;169475;-72
2021/01/16 12:25:32;;;;;;;6.83;4.77;;;;;;;;;;4900006;28;168125;-72
2021/01/16 12:28:02;;;;;;;5.80;4.40;;;;;;;;;;4906330;28;169347;-71
2021/01/16 12:30:46;;;;;;;7.93;4.43;;;;;;;;;;4906875;28;168164;-73
2021/01/16 12:33:21;;;;;;;5.87;4.27;;;;;;;;;;4898612;28;167810;-71
2021/01/16 12:35:48;;;;;;;6.00;4.63;;;;;;;;;;4908397;28;169203;-73
2021/01/16 12:38:14;;;;;;;6.80;4.70;;;;;;;;;;4898903;28;167189;-73
2021/01/16 12:40:41;;;;;;;4.93;3.90;;;;;;;;;;4909987;28;167505;-73
2021/01/16 12:43:12;;;;;;;5.67;4.60;;;;;;;;;;4896931;28;168727;-73
2021/01/16 12:45:39;;;;;;;5.47;4.23;;;;;;;;;;4915246;28;167740;-71
2021/01/16 12:48:06;;;;;;;5.20;3.93;;;;;;;;;;4911789;28;169177;-74
2021/01/16 12:50:33;;;;;;;5.07;4.30;;;;;;;;;;4911913;28;167260;-73
2021/01/16 12:53:00;;;;;;;5.30;4.27;;;;;;;;;;4905130;28;168101;-74
2021/01/16 12:55:27;;;;;;;6.37;4.13;;;;;;;;;;4899399;28;169224;-72
2021/01/16 12:58:02;;;;;;;5.57;3.77;;;;;;;;;;4910696;28;166841;-72
2021/01/16 13:00:30;;;;;;;4.60;3.60;;;;;;;;;;4901839;28;167549;-72
2021/01/16 13:03:02;;;;;;;4.63;4.00;;;;;;;;;;4899491;28;168527;-72
2021/01/16 13:05:33;;;;;;;4.57;3.80;;;;;;;;;;4907352;28;169846;-71
2021/01/16 13:08:10;;;;;;;6.00;3.90;;;;;;;;;;4902509;28;167724;-73
2021/01/16 13:10:53;;;;;;;4.10;3.33;;;;;;;;;;4903064;28;167769;-72
2021/01/16 13:13:19;;;;;;;5.03;3.73;;;;;;;;;;4909760;28;168302;-71
2021/01/16 13:15:47;;;;;;;6.00;4.00;;;;;;;;;;4899387;28;171658;-71
2021/01/16 13:18:18;;;;;;;6.03;3.57;;;;;;;;;;4904914;28;171336;-72
2021/01/16 13:20:47;;;;;;;4.47;3.63;;;;;;;;;;4898133;28;167942;-72
2021/01/16 13:23:14;;;;;;;3.87;3.13;;;;;;;;;;4896494;28;168339;-72
2021/01/16 13:25:45;;;;;;;3.40;3.10;;;;;;;;;;4906928;28;169773;-72
2021/01/16 13:28:16;;;;;;;4.80;3.00;;;;;;;;;;4905495;28;167484;-72
2021/01/16 13:30:47;;;;;;;3.93;2.93;;;;;;;;;;4900464;28;172554;-72
2021/01/16 13:33:22;;;;;;;3.60;3.03;;;;;;;;;;4906778;28;168151;-72
2021/01/16 13:35:51;;;;;;;3.40;3.00;;;;;;;;;;4898877;28;169706;-70
2021/01/16 13:38:20;;;;;;;4.13;3.03;;;;;;;;;;4903697;28;167707;-73
2021/01/16 13:40:56;;;;;;;3.60;2.77;;;;;;;;;;4906119;28;167000;-73
2021/01/16 13:43:26;;;;;;;2.20;2.00;;;;;;;;;;4900557;28;170645;-72
2021/01/16 13:45:53;;;;;;;4.40;2.77;;;;;;;;;;4907070;28;168906;-71
2021/01/16 13:48:20;;;;;;;5.50;2.63;;;;;;;;;;4897329;28;169691;-71
2021/01/16 13:50:47;;;;;;;6.67;2.87;;;;;;;;;;4908145;28;166923;-72
2021/01/16 13:53:14;;;;;;;6.60;2.70;;;;;;;;;;4903795;28;169053;-72
2021/01/16 13:55:41;;;;;;;5.17;2.60;;;;;;;;;;4902433;28;168652;-71
2021/01/16 13:58:10;;;;;;;3.43;2.57;;;;;;;;;;4904020;28;168504;-71
2021/01/16 14:00:51;;;;;;;3.67;2.47;;;;;;;;;;4903139;28;168597;-72
2021/01/16 14:03:27;;;;;;;3.40;2.50;;;;;;;;;;4897187;28;169537;-71
2021/01/16 14:06:01;;;;;;;6.13;2.80;;;;;;;;;;4904861;28;168146;-71
2021/01/16 14:08:28;;;;;;;4.37;2.60;;;;;;;;;;4910270;28;167972;-73
2021/01/16 14:11:01;;;;;;;3.00;2.47;;;;;;;;;;4915086;28;167771;-71
2021/01/16 14:13:38;;;;;;;3.23;2.43;;;;;;;;;;4906717;28;167645;-71
2021/01/16 14:16:08;;;;;;;4.63;2.70;;;;;;;;;;4902578;28;168692;-71
2021/01/16 14:18:36;;;;;;;3.27;2.33;;;;;;;;;;4910962;28;167670;-70
2021/01/16 14:21:18;;;;;;;3.00;2.47;;;;;;;;;;4902960;28;167029;-70
2021/01/16 14:23:46;;;;;;;2.30;2.10;;;;;;;;;;4901243;28;168307;-70
2021/01/16 14:26:29;;;;;;;3.70;2.63;;;;;;;;;;4911552;28;167530;-71
2021/01/16 14:28:56;;;;;;;3.40;2.60;;;;;;;;;;4901131;28;168928;-71
2021/01/16 14:31:24;;;;;;;3.70;2.20;;;;;;;;;;4892683;28;166812;-71
2021/01/16 14:34:17;;;;;;;4.83;2.60;;;;;;;;;;4905755;28;168475;-72
2021/01/16 14:36:53;;;;;;;5.70;2.57;;;;;;;;;;4896072;28;167623;-71
2021/01/16 14:39:21;;;;;;;4.40;2.50;;;;;;;;;;4903636;28;167415;-71
2021/01/16 14:41:52;;;;;;;3.73;3.13;;;;;;;;;;4897073;28;167666;-69
2021/01/16 14:44:26;;;;;;;4.63;2.43;;;;;;;;;;4893017;28;168199;-71
2021/01/16 14:46:57;;;;;;;2.63;2.20;;;;;;;;;;4905583;28;168717;-70
2021/01/16 14:49:32;;;;;;;3.57;2.40;;;;;;;;;;4901778;28;167171;-70
2021/01/16 14:52:12;;;;;;;4.00;2.30;;;;;;;;;;4896302;28;167308;-71
2021/01/16 14:54:46;;;;;;;2.83;2.13;;;;;;;;;;4910017;28;168402;-71
2021/01/16 14:57:16;;;;;;;4.07;3.00;;;;;;;;;;4906340;28;170176;-71
2021/01/16 14:59:43;;;;;;;3.33;2.43;;;;;;;;;;4898212;28;168866;-70
2021/01/16 15:02:34;;;;;;;2.30;2.10;;;;;;;;;;4895437;28;169091;-69
2021/01/16 15:05:07;;;;;;;2.93;2.60;;;;;;;;;;4897914;28;169703;-70
2021/01/16 15:07:35;;;;;;;2.47;2.27;;;;;;;;;;4899639;28;174904;-70
2021/01/16 15:10:05;;;;;;;3.53;2.27;;;;;;;;;;4894852;28;170885;-69
2021/01/16 15:12:34;;;;;;;2.20;1.93;;;;;;;;;;4895517;28;169151;-70
2021/01/16 15:15:02;;;;;;;3.30;2.10;;;;;;;;;;4902725;28;170997;-69
2021/01/16 15:17:29;;;;;;;2.73;2.20;;;;;;;;;;4900390;28;169702;-70
2021/01/16 15:19:56;;;;;;;3.20;2.53;;;;;;;;;;4899167;28;168870;-69
2021/01/16 15:22:24;;;;;;;4.10;2.67;;;;;;;;;;4891094;28;169814;-70
2021/01/16 15:24:51;;;;;;;4.50;2.23;;;;;;;;;;4897054;28;168506;-70
2021/01/16 15:27:18;;;;;;;11.23;2.60;;;;;;;;;;4913207;28;169762;-70
2021/01/16 15:29:45;;;;;;;3.13;2.40;;;;;;;;;;4913203;28;170622;-70
2021/01/16 15:32:22;;;;;;;2.30;2.10;;;;;;;;;;4910252;28;170117;-70
2021/01/16 15:34:49;;;;;;;19.17;4.03;;;;;;;;;;4900151;28;168761;-70
2021/01/16 15:37:17;;;;;;;11.83;2.60;;;;;;;;;;4897684;28;168949;-69
2021/01/16 15:39:48;;;;;;;6.80;2.03;;;;;;;;;;4898409;28;171039;-69
2021/01/16 15:42:23;;;;;;;6.27;2.30;;;;;;;;;;4898057;28;169135;-70
2021/01/16 15:45:06;;;;;;;11.10;2.57;;;;;;;;;;4908292;28;170080;-70
2021/01/16 15:47:43;;;;;;;4.03;1.80;;;;;;;;;;4910291;28;170577;-69
2021/01/16 15:50:11;;;;;;;4.90;1.70;;;;;;;;;;4909256;28;168853;-70
2021/01/16 15:52:38;;;;;;;5.40;1.90;;;;;;;;;;4899598;28;169412;-70
2021/01/16 15:55:15;;;;;;;7.80;2.33;;;;;;;;;;4899010;28;169877;-70
2021/01/16 15:57:47;;;;;;;3.03;1.90;;;;;;;;;;4905011;28;171267;-69
2021/01/16 16:00:18;;;;;;;5.27;1.90;;;;;;;;;;4914783;28;169895;-70
2021/01/16 16:02:45;;;;;;;2.67;2.13;;;;;;;;;;4897422;28;169845;-70
2021/01/16 16:05:13;;;;;;;6.83;2.00;;;;;;;;;;4908394;28;168774;-69
2021/01/16 16:07:41;;;;;;;5.13;1.83;;;;;;;;;;4899485;28;170988;-69
2021/01/16 16:10:20;;;;;;;4.40;1.70;;;;;;;;;;4899674;28;170743;-70
2021/01/16 16:12:57;;;;;;;3.50;1.80;;;;;;;;;;4902732;28;168461;-69
2021/01/16 16:15:24;;;;;;;4.53;1.70;;;;;;;;;;4909071;28;168237;-69
2021/01/16 16:17:50;;;;;;;2.50;1.60;;;;;;;;;;4901874;28;169049;-70
2021/01/16 16:20:18;;;;;;;8.23;3.50;;;;;;;;;;4913721;28;168499;-69
2021/01/16 16:22:45;;;;;;;3.93;1.87;;;;;;;;;;4907963;28;171204;-70
2021/01/16 16:25:15;;;;;;;3.30;1.80;;;;;;;;;;4897320;28;168521;-70
2021/01/16 16:27:42;;;;;;;5.63;1.67;;;;;;;;;;4901642;28;170945;-70
2021/01/16 16:30:10;;;;;;;3.47;1.70;;;;;;;;;;4907972;28;169156;-70
2021/01/16 16:32:37;;;;;;;2.43;1.80;;;;;;;;;;4916207;28;168891;-70
2021/01/16 16:35:04;;;;;;;2.73;1.73;;;;;;;;;;4907711;28;169123;-69
2021/01/16 16:37:33;;;;;;;5.43;1.77;;;;;;;;;;4905739;28;169258;-70
2021/01/16 16:40:00;;;;;;;2.77;1.57;;;;;;;;;;4910061;28;169410;-69
2021/01/16 16:42:27;;;;;;;3.67;1.90;;;;;;;;;;4904754;28;168521;-69
2021/01/16 16:44:53;;;;;;;4.03;1.80;;;;;;;;;;4904473;28;170140;-70
2021/01/16 16:47:20;;;;;;;3.33;1.77;;;;;;;;;;4911824;28;171721;-70
2021/01/16 16:49:47;;;;;;;2.43;1.70;;;;;;;;;;4903951;28;169976;-69
2021/01/16 16:52:14;;;;;;;2.87;1.80;;;;;;;;;;4895757;28;170486;-70
2021/01/16 16:54:40;;;;;;;2.83;1.77;;;;;;;;;;4904658;28;170492;-72
2021/01/16 16:57:07;;;;;;;2.00;1.70;;;;;;;;;;4897232;28;170547;-69
2021/01/16 16:59:33;;;;;;;3.30;1.80;;;;;;;;;;4894208;28;168815;-71
2021/01/16 17:02:01;;;;;;;4.47;2.10;;;;;;;;;;4906236;28;168461;-69
2021/01/16 17:04:28;;;;;;;4.20;2.20;;;;;;;;;;4901187;28;168276;-70
2021/01/16 17:06:54;;;;;;;4.53;2.40;;;;;;;;;;4903531;28;169631;-69
2021/01/16 17:09:21;;;;;;;5.63;2.37;;;;;;;;;;4905735;28;169340;-70
2021/01/16 17:11:49;;;;;;;4.57;2.17;;;;;;;;;;4902135;28;171902;-69
2021/01/16 17:14:15;;;;;;;2.77;2.27;;;;;;;;;;4901925;28;170591;-70
2021/01/16 17:16:42;;;;;;;2.87;2.17;;;;;;;;;;4904907;28;170934;-70
2021/01/16 17:19:09;;;;;;;2.83;2.30;;;;;;;;;;4899682;28;169507;-69
2021/01/16 17:21:36;;;;;;;3.10;2.30;;;;;;;;;;4899774;28;168758;-69
2021/01/16 17:24:04;;;;;;;5.37;2.43;;;;;;;;;;4899277;28;168448;-69
2021/01/16 17:26:37;;;;;;;3.20;2.47;;;;;;;;;;4910156;28;169836;-69
2021/01/16 17:29:03;;;;;;;2.60;2.10;;;;;;;;;;4901249;28;168523;-69
2021/01/16 17:31:36;;;;;;;3.20;2.43;;;;;;;;;;4911656;28;169449;-70
2021/01/16 17:34:04;;;;;;;4.53;2.53;;;;;;;;;;4908471;28;168876;-69
2021/01/16 17:36:31;;;;;;;3.20;2.70;;;;;;;;;;4898374;28;171088;-69
2021/01/16 17:38:57;;;;;;;4.10;2.57;;;;;;;;;;4904160;28;171095;-69
2021/01/16 17:41:32;;;;;;;5.07;2.23;;;;;;;;;;4901786;28;168909;-67
2021/01/16 17:43:59;;;;;;;3.80;2.80;;;;;;;;;;4910387;28;169380;-69
2021/01/16 17:46:33;;;;;;;5.37;3.10;;;;;;;;;;4899294;28;169749;-70
2021/01/16 17:49:00;;;;;;;8.13;3.07;;;;;;;;;;4899113;28;169003;-69
2021/01/16 17:51:27;;;;;;;3.13;2.50;;;;;;;;;;4894233;28;169580;-70
2021/01/16 17:53:53;;;;;;;4.50;3.20;;;;;;;;;;4899806;28;168186;-69
2021/01/16 17:56:20;;;;;;;4.40;2.40;;;;;;;;;;4897759;28;170376;-69
2021/01/16 17:58:48;;;;;;;4.80;2.63;;;;;;;;;;4902339;28;169246;-69
2021/01/16 18:01:17;;;;;;;3.30;2.70;;;;;;;;;;4903140;28;172329;-68
2021/01/16 18:03:44;;;;;;;6.10;3.20;;;;;;;;;;4903328;28;168425;-69
2021/01/16 18:06:18;;;;;;;5.87;3.00;;;;;;;;;;4892747;28;170296;-69
2021/01/16 18:08:46;;;;;;;5.50;3.20;;;;;;;;;;4905384;28;169878;-69
2021/01/16 18:11:13;;;;;;;11.80;3.17;;;;;;;;;;4893947;28;168466;-69
2021/01/16 18:13:40;;;;;;;6.27;3.40;;;;;;;;;;4905046;28;168590;-69
2021/01/16 18:16:11;;;;;;;9.53;2.87;;;;;;;;;;4898929;28;169263;-69
2021/01/16 18:18:38;;;;;;;5.20;2.97;;;;;;;;;;4893219;28;168218;-69
2021/01/16 18:21:06;;;;;;;3.70;2.80;;;;;;;;;;4896710;28;170520;-69
2021/01/16 18:23:36;;;;;;;5.97;3.00;;;;;;;;;;4893483;28;169729;-69
2021/01/16 18:26:03;;;;;;;8.00;2.83;;;;;;;;;;4902873;28;172746;-69
2021/01/16 18:28:32;;;;;;;6.07;3.13;;;;;;;;;;4894510;28;170866;-68
2021/01/16 18:30:59;;;;;;;3.93;2.83;;;;;;;;;;4912068;28;169362;-68
2021/01/16 18:33:26;;;;;;;12.37;3.37;;;;;;;;;;4903377;28;169797;-69
2021/01/16 18:36:07;;;;;;;7.50;2.77;;;;;;;;;;4898171;28;169759;-69
2021/01/16 18:38:38;;;;;;;5.13;3.10;;;;;;;;;;4894771;28;168833;-69
2021/01/16 18:41:11;;;;;;;3.83;3.10;;;;;;;;;;4897456;28;169138;-69
2021/01/16 18:43:40;;;;;;;7.60;4.10;;;;;;;;;;4901625;28;169198;-69
2021/01/16 18:46:07;;;;;;;6.43;3.10;;;;;;;;;;4896446;28;173089;-69
2021/01/16 18:48:35;;;;;;;4.70;3.27;;;;;;;;;;4897514;28;169894;-69
2021/01/16 18:51:02;;;;;;;3.30;2.60;;;;;;;;;;4893619;28;169985;-69
2021/01/16 18:53:30;;;;;;;5.47;2.73;;;;;;;;;;4895381;28;168772;-69
2021/01/16 18:56:04;;;;;;;5.43;2.47;;;;;;;;;;4898936;28;169224;-68
2021/01/16 18:58:33;;;;;;;3.17;2.60;;;;;;;;;;4901350;28;172781;-69
2021/01/16 19:01:00;;;;;;;3.73;2.50;;;;;;;;;;4895434;28;169366;-68
2021/01/16 19:03:29;;;;;;;3.43;2.50;;;;;;;;;;4891746;28;170757;-68
2021/01/16 19:05:56;;;;;;;2.60;2.30;;;;;;;;;;4894593;28;175323;-68
2021/01/16 19:08:23;;;;;;;3.27;2.60;;;;;;;;;;4900135;28;171784;-68
2021/01/16 19:10:52;;;;;;;3.40;2.67;;;;;;;;;;4894947;28;170002;-68
2021/01/16 19:13:20;;;;;;;5.57;3.13;;;;;;;;;;4897246;28;169260;-68
2021/01/16 19:15:47;;;;;;;3.23;2.80;;;;;;;;;;4895832;28;171127;-68
2021/01/16 19:18:14;;;;;;;6.53;2.90;;;;;;;;;;4893406;28;171969;-68
2021/01/16 19:20:41;;;;;;;3.63;2.73;;;;;;;;;;4903361;28;169339;-68
2021/01/16 19:23:08;;;;;;;3.00;2.70;;;;;;;;;;4899061;28;169767;-68
2021/01/16 19:25:34;;;;;;;5.87;3.20;;;;;;;;;;4899483;28;169774;-67
2021/01/16 19:28:01;;;;;;;6.50;3.17;;;;;;;;;;4898335;28;168894;-67
2021/01/16 19:30:28;;;;;;;2.63;2.30;;;;;;;;;;4902381;28;168513;-68
2021/01/16 19:33:01;;;;;;;3.20;2.60;;;;;;;;;;4898282;28;169159;-68
2021/01/16 19:35:29;;;;;;;3.63;2.13;;;;;;;;;;4894976;28;170894;-68
2021/01/16 19:37:56;;;;;;;4.73;2.63;;;;;;;;;;4903919;28;170294;-68
2021/01/16 19:40:24;;;;;;;10.10;2.23;;;;;;;;;;4897223;28;171860;-68
2021/01/16 19:42:52;;;;;;;3.23;2.57;;;;;;;;;;4912388;28;169252;-68
2021/01/16 19:45:20;;;;;;;3.50;2.33;;;;;;;;;;4902089;28;172241;-68
2021/01/16 19:47:47;;;;;;;5.47;2.50;;;;;;;;;;4897382;28;169368;-68
2021/01/16 19:50:15;;;;;;;6.33;2.90;;;;;;;;;;4896701;28;168373;-68
2021/01/16 19:52:43;;;;;;;4.47;2.80;;;;;;;;;;4905882;28;168551;-68
2021/01/16 19:55:10;;;;;;;5.83;2.37;;;;;;;;;;4904748;28;170036;-68
2021/01/16 19:57:44;;;;;;;5.50;2.40;;;;;;;;;;4895849;28;171814;-67
2021/01/16 20:00:12;;;;;;;12.53;3.07;;;;;;;;;;4902079;28;169251;-69
2021/01/16 20:02:39;;;;;;;6.97;2.47;;;;;;;;;;4906575;28;170969;-69
2021/01/16 20:05:06;;;;;;;7.20;2.87;;;;;;;;;;4898499;28;171489;-68
2021/01/16 20:07:33;;;;;;;4.30;2.70;;;;;;;;;;4900590;28;169337;-69
2021/01/16 20:10:00;;;;;;;2.93;2.60;;;;;;;;;;4900308;28;169243;-68
2021/01/16 20:12:32;;;;;;;5.87;2.70;;;;;;;;;;4906696;28;168457;-68
2021/01/16 20:15:00;;;;;;;2.97;2.60;;;;;;;;;;4912144;28;169227;-69
2021/01/16 20:17:26;;;;;;;4.10;2.40;;;;;;;;;;4899333;28;169838;-69
2021/01/16 20:19:53;;;;;;;3.57;2.60;;;;;;;;;;4903443;28;170679;-68
2021/01/16 20:22:20;;;;;;;4.47;2.73;;;;;;;;;;4907592;28;168196;-68
2021/01/16 20:24:47;;;;;;;2.77;2.50;;;;;;;;;;4910669;28;170526;-69
2021/01/16 20:27:13;;;;;;;3.50;2.40;;;;;;;;;;4908200;28;168407;-69
2021/01/16 20:29:40;;;;;;;3.07;2.47;;;;;;;;;;4894661;28;170586;-68
2021/01/16 20:32:08;;;;;;;2.60;2.40;;;;;;;;;;4906267;28;168952;-68
2021/01/16 20:34:35;;;;;;;3.97;2.57;;;;;;;;;;4901581;28;170382;-68
2021/01/16 20:37:02;;;;;;;7.77;2.60;;;;;;;;;;4900542;28;169066;-68
2021/01/16 20:39:29;;;;;;;8.40;2.40;;;;;;;;;;4899358;28;169068;-68
2021/01/16 20:41:56;;;;;;;4.07;2.60;;;;;;;;;;4898916;28;171125;-69
2021/01/16 20:44:23;;;;;;;7.53;2.97;;;;;;;;;;4904908;28;169794;-68
2021/01/16 20:46:50;;;;;;;5.67;2.70;;;;;;;;;;4901809;28;169554;-68
2021/01/16 20:49:17;;;;;;;3.67;2.50;;;;;;;;;;4896003;28;170652;-68
2021/01/16 20:51:44;;;;;;;7.10;3.07;;;;;;;;;;4908781;28;169043;-68
2021/01/16 20:54:11;;;;;;;2.90;2.60;;;;;;;;;;4897043;28;171769;-67
2021/01/16 20:56:38;;;;;;;3.03;2.40;;;;;;;;;;4897358;28;171206;-67
2021/01/16 20:59:05;;;;;;;5.33;2.70;;;;;;;;;;4896921;28;169590;-68
2021/01/16 21:01:31;;;;;;;5.80;2.67;;;;;;;;;;4892971;28;170138;-68
2021/01/16 21:03:58;;;;;;;3.83;2.97;;;;;;;;;;4891027;28;170512;-67
2021/01/16 21:06:25;;;;;;;6.00;2.70;;;;;;;;;;4901386;28;168561;-68
2021/01/16 21:08:52;;;;;;;6.67;2.77;;;;;;;;;;4906661;28;169897;-68
2021/01/16 21:11:18;;;;;;;4.17;2.60;;;;;;;;;;4894945;28;170441;-69
2021/01/16 21:13:45;;;;;;;4.10;2.67;;;;;;;;;;4893154;28;170717;-69
2021/01/16 21:16:12;;;;;;;5.40;2.77;;;;;;;;;;4892861;28;168446;-69
2021/01/16 21:18:40;;;;;;;5.03;2.93;;;;;;;;;;4892849;28;172114;-69
2021/01/16 21:21:06;;;;;;;6.53;2.63;;;;;;;;;;4898502;28;169262;-69
2021/01/16 21:23:33;;;;;;;2.87;2.50;;;;;;;;;;4906593;28;170560;-69
2021/01/16 21:26:00;;;;;;;4.07;2.50;;;;;;;;;;4913148;28;168869;-69
2021/01/16 21:28:27;;;;;;;9.27;2.70;;;;;;;;;;4912821;28;169107;-69
2021/01/16 21:30:53;;;;;;;3.67;2.90;;;;;;;;;;4893192;28;169411;-69
2021/01/16 21:33:20;;;;;;;5.83;2.73;;;;;;;;;;4903067;28;171184;-68
2021/01/16 21:35:47;;;;;;;3.87;2.43;;;;;;;;;;4907286;28;170096;-69
2021/01/16 21:38:14;;;;;;;5.00;2.97;;;;;;;;;;4902800;28;169704;-69
2021/01/16 21:40:41;;;;;;;4.37;2.60;;;;;;;;;;4903828;28;168527;-69
2021/01/16 21:43:09;;;;;;;3.20;2.37;;;;;;;;;;4892199;28;171976;-69
2021/01/16 21:45:36;;;;;;;8.67;2.17;;;;;;;;;;4892219;28;170366;-69
2021/01/16 21:48:06;;;;;;;3.97;2.30;;;;;;;;;;4903879;28;168473;-69
2021/01/16 21:50:32;;;;;;;4.70;2.30;;;;;;;;;;4899844;28;169939;-68
2021/01/16 21:52:59;;;;;;;2.37;2.17;;;;;;;;;;4901710;28;169847;-69
2021/01/16 21:55:26;;;;;;;3.20;2.20;;;;;;;;;;4904816;28;169459;-69
2021/01/16 21:57:53;;;;;;;4.93;2.53;;;;;;;;;;4903115;28;170734;-69
2021/01/16 22:00:21;;;;;;;5.13;2.20;;;;;;;;;;4903022;28;167522;-69
2021/01/16 22:02:54;;;;;;;4.20;2.13;;;;;;;;;;4892567;28;169425;-69
2021/01/16 22:05:20;;;;;;;6.20;2.37;;;;;;;;;;4903103;28;169831;-69
2021/01/16 22:07:48;;;;;;;2.50;2.30;;;;;;;;;;4891300;28;170031;-68
2021/01/16 22:10:15;;;;;;;2.70;2.07;;;;;;;;;;4892887;28;168946;-69
2021/01/16 22:12:42;;;;;;;3.07;2.47;;;;;;;;;;4910173;28;171277;-68
2021/01/16 22:15:09;;;;;;;3.37;2.07;;;;;;;;;;4911706;28;170179;-67
2021/01/16 22:17:36;;;;;;;2.93;2.20;;;;;;;;;;4897175;28;168513;-67
2021/01/16 22:20:06;;;;;;;3.47;2.10;;;;;;;;;;4890751;28;168968;-67
2021/01/16 22:22:32;;;;;;;2.33;1.90;;;;;;;;;;4890618;28;169942;-68
2021/01/16 22:24:59;;;;;;;9.80;2.43;;;;;;;;;;4896415;28;168273;-67
2021/01/16 22:27:26;;;;;;;4.73;2.40;;;;;;;;;;4905320;28;168423;-67
2021/01/16 22:29:54;;;;;;;31.90;5.10;;;;;;;;;;4902073;28;170951;-66
2021/01/16 22:32:20;;;;;;;6.07;2.40;;;;;;;;;;4891376;28;172207;-67
2021/01/16 22:34:47;;;;;;;6.03;2.90;;;;;;;;;;4898970;28;170502;-67
2021/01/16 22:37:16;;;;;;;13.30;2.80;;;;;;;;;;4895612;28;168821;-67
2021/01/16 22:39:43;;;;;;;8.73;2.53;;;;;;;;;;4900729;28;169187;-66
2021/01/16 22:42:10;;;;;;;5.93;2.53;;;;;;;;;;4906947;28;170228;-66
2021/01/16 22:44:36;;;;;;;4.20;2.20;;;;;;;;;;4914597;28;168541;-66
2021/01/16 22:47:03;;;;;;;4.40;2.50;;;;;;;;;;4901486;28;170363;-66
2021/01/16 22:49:30;;;;;;;5.63;3.07;;;;;;;;;;4895973;28;168210;-67
2021/01/16 22:51:57;;;;;;;10.87;3.27;;;;;;;;;;4900939;28;171066;-66
2021/01/16 22:54:24;;;;;;;6.30;3.60;;;;;;;;;;4890266;28;169359;-66
2021/01/16 22:56:51;;;;;;;6.67;3.03;;;;;;;;;;4893308;28;170652;-66
2021/01/16 22:59:19;;;;;;;5.67;2.83;;;;;;;;;;4899092;28;168417;-66
2021/01/16 23:01:46;;;;;;;4.80;2.97;;;;;;;;;;4904656;28;170058;-68
2021/01/16 23:04:13;;;;;;;7.77;3.40;;;;;;;;;;4898155;28;169412;-69
2021/01/16 23:06:39;;;;;;;6.20;3.00;;;;;;;;;;4912662;28;168936;-69
2021/01/16 23:09:07;;;;;;;3.40;2.93;;;;;;;;;;4878172;28;169866;-66
2021/01/16 23:11:33;;;;;;;3.40;2.70;;;;;;;;;;4913635;28;169742;-69
2021/01/16 23:14:00;;;;;;;6.53;2.80;;;;;;;;;;4906187;28;170100;-69
2021/01/16 23:16:27;;;;;;;5.87;3.37;;;;;;;;;;4900915;28;169851;-69
2021/01/16 23:18:54;;;;;;;11.10;3.00;;;;;;;;;;4900346;28;168525;-69
2021/01/16 23:21:21;;;;;;;5.53;2.90;;;;;;;;;;4904873;28;171475;-69
2021/01/16 23:23:48;;;;;;;4.60;2.80;;;;;;;;;;4892884;28;169178;-69
2021/01/16 23:26:14;;;;;;;6.03;2.87;;;;;;;;;;4909540;28;168355;-69
2021/01/16 23:28:42;;;;;;;5.70;3.27;;;;;;;;;;4910254;28;168812;-69
2021/01/16 23:31:10;;;;;;;7.37;3.17;;;;;;;;;;4907010;28;170232;-69
2021/01/16 23:33:37;;;;;;;8.33;3.50;;;;;;;;;;4907347;28;168730;-69
2021/01/16 23:36:12;;;;;;;5.93;3.10;;;;;;;;;;4896108;28;168337;-69
2021/01/16 23:38:39;;;;;;;5.50;3.00;;;;;;;;;;4902975;28;170163;-69
2021/01/16 23:41:07;;;;;;;4.63;2.93;;;;;;;;;;4903553;28;169660;-69
2021/01/16 23:43:33;;;;;;;6.83;3.37;;;;;;;;;;4894344;28;169084;-69
2021/01/16 23:46:04;;;;;;;13.97;3.70;;;;;;;;;;4898528;28;170468;-69
2021/01/16 23:48:31;;;;;;;9.93;3.43;;;;;;;;;;4898827;28;169028;-69
2021/01/16 23:50:58;;;;;;;7.30;4.13;;;;;;;;;;4915274;28;170036;-69
2021/01/16 23:53:25;;;;;;;8.00;4.17;;;;;;;;;;4909739;28;168479;-69
2021/01/16 23:55:56;;;;;;;8.37;4.10;;;;;;;;;;4898866;28;168591;-69
2021/01/16 23:58:24;;;;;;;9.53;4.03;;;;;;;;;;4897608;28;168610;-66
